createdAt,value
2023-04-25T00:00:08.266Z,64.06
2023-04-25T00:03:00.869Z,62.58
2023-04-25T00:05:30.639Z,61.96
2023-04-25T00:07:59.677Z,63.36
2023-04-25T00:10:27.594Z,64.20
2023-04-25T00:12:55.542Z,62.68
2023-04-25T00:15:24.072Z,63.04
2023-04-25T00:17:54.135Z,62.25
2023-04-25T00:20:23.083Z,62.49
2023-04-25T00:22:50.990Z,62.58
2023-04-25T00:25:19.066Z,62.75
2023-04-25T00:27:47.003Z,62.39
2023-04-25T00:30:15.466Z,64.65
2023-04-25T00:32:43.593Z,63.92
2023-04-25T00:35:11.780Z,63.08
2023-04-25T00:37:39.744Z,62.12
2023-04-25T00:40:08.809Z,63.11
2023-04-25T00:42:38.076Z,61.72
2023-04-25T00:45:08.637Z,62.38
2023-04-25T00:47:37.334Z,61.88
2023-04-25T00:50:05.849Z,62.14
2023-04-25T00:52:33.964Z,62.65
2023-04-25T00:55:02.176Z,63.00
2023-04-25T00:57:30.600Z,63.43
2023-04-25T01:00:00.013Z,62.45
2023-04-25T01:02:28.496Z,62.78
2023-04-25T01:04:56.706Z,62.52
2023-04-25T01:07:24.756Z,62.01
2023-04-25T01:09:53.875Z,63.43
2023-04-25T01:12:21.984Z,63.38
2023-04-25T01:14:50.310Z,62.14
2023-04-25T01:17:21.190Z,62.19
2023-04-25T01:19:50.043Z,63.20
2023-04-25T01:22:18.319Z,62.52
2023-04-25T01:24:46.771Z,62.45
2023-04-25T01:27:15.278Z,62.98
2023-04-25T01:29:43.831Z,64.06
2023-04-25T01:32:12.188Z,63.66
2023-04-25T01:34:40.800Z,63.62
2023-04-25T01:37:08.854Z,62.64
2023-04-25T01:39:36.729Z,63.34
2023-04-25T01:42:04.956Z,63.85
2023-04-25T01:44:33.009Z,62.38
2023-04-25T01:47:00.980Z,62.01
2023-04-25T01:49:29.361Z,63.03
2023-04-25T01:51:57.932Z,62.36
2023-04-25T01:54:26.088Z,62.23
2023-04-25T01:56:54.296Z,62.92
2023-04-25T01:59:23.850Z,62.42
2023-04-25T02:02:18.681Z,61.97
2023-04-25T02:04:46.770Z,61.85
2023-04-25T02:07:15.515Z,62.94
2023-04-25T02:09:51.111Z,63.71
2023-04-25T02:12:20.544Z,64.18
2023-04-25T02:15:19.909Z,63.86
2023-04-25T02:17:54.913Z,63.12
2023-04-25T02:20:24.275Z,63.02
2023-04-25T02:22:52.518Z,62.41
2023-04-25T02:25:22.774Z,63.07
2023-04-25T02:27:52.498Z,62.85
2023-04-25T02:30:20.614Z,64.23
2023-04-25T02:32:48.653Z,64.35
2023-04-25T02:35:16.904Z,62.76
2023-04-25T02:37:44.859Z,62.93
2023-04-25T02:40:15.080Z,62.70
2023-04-25T02:42:42.986Z,62.60
2023-04-25T02:45:11.091Z,63.46
2023-04-25T02:47:39.008Z,63.83
2023-04-25T02:50:07.629Z,64.28
2023-04-25T02:52:36.460Z,65.04
2023-04-25T02:55:11.976Z,63.29
2023-04-25T02:57:40.045Z,64.27
2023-04-25T03:00:08.892Z,63.79
2023-04-25T03:02:36.908Z,62.86
2023-04-25T03:05:05.169Z,62.96
2023-04-25T03:07:33.202Z,64.76
2023-04-25T03:10:01.254Z,64.29
2023-04-25T03:12:31.262Z,63.56
2023-04-25T03:14:59.321Z,63.73
2023-04-25T03:17:27.398Z,65.04
2023-04-25T03:19:56.325Z,62.79
2023-04-25T03:22:25.407Z,61.37
2023-04-25T03:24:53.509Z,62.27
2023-04-25T03:27:21.518Z,62.76
2023-04-25T03:29:49.429Z,62.23
2023-04-25T03:32:17.449Z,61.50
2023-04-25T03:34:45.401Z,62.01
2023-04-25T03:37:13.487Z,62.60
2023-04-25T03:39:42.418Z,62.39
2023-04-25T03:42:10.585Z,61.67
2023-04-25T03:44:41.058Z,62.14
2023-04-25T03:47:09.380Z,62.45
2023-04-25T03:49:37.969Z,63.49
2023-04-25T03:52:07.655Z,64.81
2023-04-25T03:54:38.526Z,64.57
2023-04-25T03:57:18.907Z,61.21
2023-04-25T03:59:46.892Z,61.75
2023-04-25T04:02:16.143Z,62.39
2023-04-25T04:04:45.565Z,61.99
2023-04-25T04:07:14.937Z,61.82
2023-04-25T04:09:45.449Z,61.35
2023-04-25T04:12:22.354Z,61.48
2023-04-25T04:14:50.405Z,62.00
2023-04-25T04:17:18.843Z,62.24
2023-04-25T04:19:46.882Z,63.14
2023-04-25T04:22:20.434Z,62.02
2023-04-25T04:24:51.154Z,61.37
2023-04-25T04:27:40.202Z,61.47
2023-04-25T04:30:26.549Z,61.61
2023-04-25T04:32:59.122Z,62.88
2023-04-25T04:35:27.458Z,62.64
2023-04-25T04:37:55.801Z,61.81
2023-04-25T04:40:24.931Z,60.58
2023-04-25T04:43:05.744Z,61.38
2023-04-25T04:46:05.393Z,61.24
2023-04-25T04:48:57.494Z,61.35
2023-04-25T04:52:04.185Z,62.70
2023-04-25T04:54:54.914Z,63.51
2023-04-25T04:57:50.001Z,63.33
2023-04-25T05:00:41.505Z,62.32
2023-04-25T05:03:30.018Z,63.77
2023-04-25T05:06:13.745Z,62.92
2023-04-25T05:09:10.897Z,62.91
2023-04-25T05:12:02.359Z,62.00
2023-04-25T05:14:50.358Z,60.23
2023-04-25T05:17:36.872Z,59.37
2023-04-25T05:20:22.701Z,64.23
2023-04-25T05:23:22.956Z,63.53
2023-04-25T05:26:19.182Z,61.61
2023-04-25T05:29:07.476Z,59.83
2023-04-25T05:31:55.766Z,63.13
2023-04-25T05:34:23.980Z,65.02
2023-04-25T05:37:14.662Z,62.94
2023-04-25T05:39:54.459Z,61.83
2023-04-25T05:42:38.361Z,61.64
2023-04-25T05:45:24.490Z,60.68
2023-04-25T05:48:11.087Z,58.95
2023-04-25T05:51:05.440Z,61.60
2023-04-25T05:53:53.045Z,66.41
2023-04-25T05:56:21.726Z,63.62
2023-04-25T05:58:53.495Z,62.13
2023-04-25T06:01:21.652Z,60.74
2023-04-25T06:03:50.086Z,59.30
2023-04-25T06:06:19.019Z,59.01
2023-04-25T06:08:48.085Z,64.90
2023-04-25T06:11:15.953Z,64.27
2023-04-25T06:13:43.896Z,62.43
2023-04-25T06:16:13.468Z,60.32
2023-04-25T06:18:41.454Z,58.53
2023-04-25T06:21:10.451Z,63.39
2023-04-25T06:23:39.002Z,63.54
2023-04-25T06:30:31.185Z,61.30
2023-04-25T06:33:03.316Z,60.77
2023-04-25T06:35:31.586Z,60.77
2023-04-25T06:37:59.964Z,60.27
2023-04-25T06:40:28.104Z,59.91
2023-04-25T06:47:10.910Z,62.94
2023-04-25T06:49:38.889Z,60.97
2023-04-25T06:52:07.920Z,60.63
2023-04-25T06:54:35.853Z,61.04
2023-04-25T06:57:11.165Z,60.05
2023-04-25T06:59:39.094Z,60.20
2023-04-25T07:02:07.392Z,59.49
2023-04-25T07:04:35.846Z,57.93
2023-04-25T07:07:04.970Z,59.61
2023-04-25T07:09:38.696Z,64.95
2023-04-25T07:12:06.983Z,63.08
2023-04-25T07:14:35.400Z,59.61
2023-04-25T07:17:03.543Z,59.86
2023-04-25T07:19:34.324Z,63.37
2023-04-25T07:22:03.314Z,62.96
2023-04-25T07:24:31.421Z,59.86
2023-04-25T07:26:59.589Z,59.16
2023-04-25T07:29:46.831Z,63.13
2023-04-25T07:32:15.266Z,64.04
2023-04-25T07:34:44.362Z,60.36
2023-04-25T07:37:12.493Z,57.77
2023-04-25T07:39:50.970Z,61.04
2023-04-25T07:42:18.914Z,63.10
2023-04-25T07:44:46.967Z,60.44
2023-04-25T07:47:16.058Z,58.36
2023-04-25T07:49:44.207Z,58.90
2023-04-25T07:52:12.996Z,63.06
2023-04-25T07:54:44.864Z,61.54
2023-04-25T07:57:18.154Z,58.41
2023-04-25T07:59:46.882Z,58.91
2023-04-25T08:02:15.788Z,63.44
2023-04-25T08:04:43.855Z,63.34
2023-04-25T08:07:14.360Z,57.40
2023-04-25T08:09:49.793Z,59.80
2023-04-25T08:12:24.496Z,61.62
2023-04-25T08:14:52.534Z,64.43
2023-04-25T08:17:20.613Z,63.23
2023-04-25T08:19:48.645Z,59.23
2023-04-25T08:22:25.602Z,58.73
2023-04-25T08:25:00.179Z,62.12
2023-04-25T08:27:28.952Z,62.81
2023-04-25T08:29:59.464Z,60.40
2023-04-25T08:32:29.062Z,58.20
2023-04-25T08:35:18.604Z,61.29
2023-04-25T08:37:47.160Z,63.86
2023-04-25T08:40:17.268Z,60.72
2023-04-25T08:42:58.603Z,59.45
2023-04-25T08:45:29.080Z,61.72
2023-04-25T08:47:58.320Z,63.50
2023-04-25T08:50:27.452Z,61.93
2023-04-25T08:52:57.063Z,57.68
2023-04-25T08:55:28.079Z,59.08
2023-04-25T08:58:02.004Z,61.11
2023-04-25T09:00:30.649Z,63.10
2023-04-25T09:03:00.899Z,60.53
2023-04-25T09:05:33.986Z,57.63
2023-04-25T09:08:02.683Z,58.31
2023-04-25T09:13:07.888Z,62.93
2023-04-25T09:15:53.317Z,61.97
2023-04-25T09:18:37.482Z,57.89
2023-04-25T09:21:14.338Z,58.24
2023-04-25T09:23:49.813Z,59.13
2023-04-25T09:26:19.682Z,61.93
2023-04-25T09:28:49.170Z,63.29
2023-04-25T09:31:25.610Z,57.90
2023-04-25T09:34:02.504Z,57.48
2023-04-25T09:36:35.710Z,59.96
2023-04-25T09:39:22.495Z,62.04
2023-04-25T09:42:00.567Z,61.28
2023-04-25T09:44:28.677Z,57.20
2023-04-25T09:46:56.846Z,57.43
2023-04-25T09:49:28.757Z,59.17
2023-04-25T09:52:06.046Z,60.79
2023-04-25T09:54:39.228Z,61.32
2023-04-25T09:57:24.834Z,60.65
2023-04-25T09:59:56.153Z,61.35
2023-04-25T10:02:28.319Z,61.38
2023-04-25T10:05:01.599Z,60.93
2023-04-25T10:07:39.232Z,60.67
2023-04-25T10:10:13.726Z,59.23
2023-04-25T10:12:44.575Z,59.78
2023-04-25T10:15:14.205Z,59.54
2023-04-25T10:17:42.336Z,59.21
2023-04-25T10:20:12.193Z,58.39
2023-04-25T10:22:43.990Z,58.67
2023-04-25T10:25:12.886Z,59.01
2023-04-25T10:27:41.279Z,58.73
2023-04-25T10:30:14.245Z,58.87
2023-04-25T10:32:46.711Z,59.21
2023-04-25T10:35:20.518Z,60.38
2023-04-25T10:38:06.710Z,59.83
2023-04-25T10:40:34.793Z,60.30
2023-04-25T10:43:32.142Z,60.12
2023-04-25T10:46:04.336Z,60.45
2023-04-25T10:48:32.896Z,60.13
2023-04-25T10:51:32.455Z,60.17
2023-04-25T10:54:07.920Z,58.78
2023-04-25T10:56:45.618Z,57.98
2023-04-25T10:59:19.433Z,58.02
2023-04-25T11:01:50.361Z,57.50
2023-04-25T11:04:37.956Z,56.75
2023-04-25T11:07:19.606Z,56.57
2023-04-25T11:09:47.976Z,56.81
2023-04-25T11:12:16.153Z,57.69
2023-04-25T11:14:44.167Z,57.29
2023-04-25T11:17:12.596Z,57.00
2023-04-25T11:19:40.894Z,56.84
2023-04-25T11:22:08.965Z,56.00
2023-04-25T11:24:37.914Z,55.39
2023-04-25T11:27:09.407Z,55.27
2023-04-25T11:29:37.598Z,55.53
2023-04-25T11:32:05.766Z,55.55
2023-04-25T11:34:34.851Z,54.43
2023-04-25T11:37:03.822Z,55.44
2023-04-25T11:39:31.846Z,54.90
2023-04-25T11:42:01.467Z,55.34
2023-04-25T11:44:29.744Z,55.53
2023-04-25T11:46:57.827Z,55.48
2023-04-25T11:49:32.595Z,55.42
2023-04-25T11:52:01.064Z,55.64
2023-04-25T11:54:29.030Z,54.85
2023-04-25T11:56:57.832Z,54.14
2023-04-25T11:59:26.909Z,54.21
2023-04-25T12:01:55.471Z,53.99
2023-04-25T12:04:25.916Z,54.79
2023-04-25T12:06:56.230Z,54.77
2023-04-25T12:09:33.183Z,54.86
2023-04-25T12:12:04.929Z,54.78
2023-04-25T12:14:35.923Z,54.45
2023-04-25T12:17:05.328Z,55.05
2023-04-25T12:19:36.353Z,54.43
2023-04-25T12:22:21.243Z,54.67
2023-04-25T12:24:49.350Z,54.75
2023-04-25T12:27:20.165Z,54.56
2023-04-25T12:29:56.996Z,54.55
2023-04-25T12:32:26.390Z,54.64
2023-04-25T12:34:54.367Z,54.73
2023-04-25T12:37:22.454Z,54.78
2023-04-25T12:39:50.456Z,55.36
2023-04-25T12:42:18.456Z,55.10
2023-04-25T12:44:47.659Z,54.69
2023-04-25T12:47:15.998Z,54.74
2023-04-25T12:49:43.943Z,53.97
2023-04-25T12:52:11.848Z,53.99
2023-04-25T12:54:39.866Z,54.40
2023-04-25T12:57:07.849Z,54.63
2023-04-25T12:59:35.839Z,54.79
2023-04-25T13:02:04.120Z,54.79
2023-04-25T13:04:32.463Z,54.68
2023-04-25T13:07:01.296Z,54.88
2023-04-25T13:09:29.423Z,55.21
2023-04-25T13:11:59.371Z,55.40
2023-04-25T13:14:27.720Z,55.45
2023-04-25T13:16:55.795Z,55.51
2023-04-25T13:19:23.817Z,55.81
2023-04-25T13:21:51.978Z,55.81
2023-04-25T13:24:19.989Z,55.76
2023-04-25T13:26:47.932Z,55.77
2023-04-25T13:29:15.899Z,55.48
2023-04-25T13:31:43.846Z,54.82
2023-04-25T13:34:13.669Z,54.59
2023-04-25T13:36:41.825Z,54.60
2023-04-25T13:39:09.775Z,54.22
2023-04-25T13:41:37.896Z,54.61
2023-04-25T13:44:05.867Z,54.06
2023-04-25T13:46:45.653Z,54.12
2023-04-25T13:49:15.021Z,53.93
2023-04-25T13:51:43.600Z,53.05
2023-04-25T13:54:11.984Z,53.68
2023-04-25T13:56:40.024Z,53.43
2023-04-25T13:59:08.037Z,54.19
2023-04-25T14:01:37.256Z,54.02
2023-04-25T14:04:05.713Z,53.99
2023-04-25T14:06:34.312Z,53.96
2023-04-25T14:09:02.468Z,53.66
2023-04-25T14:11:30.752Z,53.35
2023-04-25T14:13:58.744Z,53.64
2023-04-25T14:16:26.844Z,53.23
2023-04-25T14:18:55.678Z,53.89
2023-04-25T14:21:23.630Z,53.84
2023-04-25T14:23:51.921Z,52.93
2023-04-25T14:26:20.143Z,53.14
2023-04-25T14:28:48.025Z,53.34
2023-04-25T14:31:16.573Z,53.70
2023-04-25T14:33:44.792Z,53.61
2023-04-25T14:36:12.672Z,53.88
2023-04-25T14:38:40.706Z,53.33
2023-04-25T14:41:08.635Z,53.97
2023-04-25T14:43:37.710Z,53.94
2023-04-25T14:46:05.763Z,53.65
2023-04-25T14:48:34.365Z,53.52
2023-04-25T14:51:02.286Z,53.62
2023-04-25T14:53:30.203Z,53.77
2023-04-25T14:55:58.149Z,53.82
2023-04-25T14:58:26.049Z,53.84
2023-04-25T15:00:54.501Z,53.62
2023-04-25T15:03:24.043Z,52.50
2023-04-25T15:05:52.459Z,52.21
2023-04-25T15:08:20.814Z,52.43
2023-04-25T15:10:50.228Z,52.77
2023-04-25T15:13:22.177Z,52.69
2023-04-25T15:15:52.401Z,52.98
2023-04-25T15:18:24.757Z,53.39
2023-04-25T15:20:54.210Z,53.43
2023-04-25T15:23:22.910Z,53.23
2023-04-25T15:25:52.589Z,52.80
2023-04-25T15:28:22.450Z,52.62
2023-04-25T15:30:51.297Z,51.93
2023-04-25T15:33:19.243Z,51.88
2023-04-25T15:35:47.132Z,51.08
2023-04-25T15:38:15.115Z,51.23
2023-04-25T15:40:43.625Z,51.24
2023-04-25T15:43:15.963Z,49.66
2023-04-25T15:45:45.763Z,49.58
2023-04-25T15:48:14.023Z,50.30
2023-04-25T15:50:42.527Z,51.26
2023-04-25T15:53:10.686Z,51.86
2023-04-25T15:55:39.118Z,52.57
2023-04-25T15:58:07.095Z,53.05
2023-04-25T16:00:36.365Z,52.84
2023-04-25T16:03:05.362Z,52.61
2023-04-25T16:05:33.558Z,53.29
2023-04-25T16:08:01.530Z,53.40
2023-04-25T16:10:29.416Z,53.16
2023-04-25T16:12:57.526Z,53.51
2023-04-25T16:15:25.681Z,52.98
2023-04-25T16:17:53.627Z,53.37
2023-04-25T16:20:22.869Z,53.59
2023-04-25T16:22:51.083Z,54.09
2023-04-25T16:25:19.099Z,54.41
2023-04-25T16:27:47.176Z,55.53
2023-04-25T16:30:15.424Z,54.33
2023-04-25T16:32:45.380Z,54.07
2023-04-25T16:35:13.898Z,52.70
2023-04-25T16:37:41.945Z,52.45
2023-04-25T16:40:10.281Z,52.78
2023-04-25T16:42:38.270Z,49.95
2023-04-25T16:45:06.680Z,48.61
2023-04-25T16:47:34.674Z,49.27
2023-04-25T16:50:02.893Z,49.79
2023-04-25T16:52:31.630Z,51.15
2023-04-25T16:54:59.586Z,51.61
2023-04-25T16:57:27.541Z,51.71
2023-04-25T16:59:55.475Z,52.15
2023-04-25T17:02:23.652Z,52.91
2023-04-25T17:04:51.820Z,53.62
2023-04-25T17:07:24.538Z,54.19
2023-04-25T17:09:52.562Z,54.90
2023-04-25T17:12:21.605Z,55.58
2023-04-25T17:14:50.249Z,55.93
2023-04-25T17:17:18.945Z,55.45
2023-04-25T17:19:47.269Z,54.28
2023-04-25T17:22:15.341Z,53.20
2023-04-25T17:24:43.311Z,53.03
2023-04-25T17:27:11.743Z,52.94
2023-04-25T17:29:39.730Z,53.27
2023-04-25T17:32:07.798Z,53.67
2023-04-25T17:34:37.707Z,54.51
2023-04-25T17:37:06.305Z,54.89
2023-04-25T17:39:34.454Z,55.53
2023-04-25T17:42:02.739Z,56.29
2023-04-25T17:44:31.019Z,56.86
2023-04-25T17:46:58.980Z,57.19
2023-04-25T17:49:26.973Z,58.00
2023-04-25T17:51:54.952Z,58.35
2023-04-25T17:54:22.900Z,58.93
2023-04-25T17:56:50.967Z,59.50
2023-04-25T17:59:19.451Z,59.43
2023-04-25T18:01:48.327Z,60.09
2023-04-25T18:04:17.656Z,60.93
2023-04-25T18:06:46.299Z,61.40
2023-04-25T18:09:23.880Z,61.90
2023-04-25T18:11:56.617Z,62.08
2023-04-25T18:14:25.158Z,62.44
2023-04-25T18:16:56.723Z,64.07
2023-04-25T18:19:24.658Z,63.26
2023-04-25T18:21:56.246Z,60.01
2023-04-25T18:24:27.328Z,55.87
2023-04-25T18:26:56.111Z,55.32
2023-04-25T18:29:32.865Z,56.76
2023-04-25T18:32:02.238Z,57.95
2023-04-25T18:34:31.183Z,59.40
2023-04-25T18:36:59.242Z,61.00
2023-04-25T18:39:27.725Z,62.09
2023-04-25T18:42:04.355Z,63.82
2023-04-25T18:44:39.658Z,62.18
2023-04-25T18:47:09.020Z,55.48
2023-04-25T18:49:37.712Z,55.80
2023-04-25T18:52:10.353Z,57.50
2023-04-25T18:54:39.173Z,59.60
2023-04-25T18:57:07.686Z,61.17
2023-04-25T18:59:36.242Z,62.24
2023-04-25T19:02:05.604Z,63.28
2023-04-25T19:04:34.491Z,61.45
2023-04-25T19:07:04.236Z,54.79
2023-04-25T19:09:32.660Z,55.53
2023-04-25T19:12:01.906Z,57.91
2023-04-25T19:14:32.610Z,59.82
2023-04-25T19:17:00.822Z,60.99
2023-04-25T19:19:29.029Z,62.21
2023-04-25T19:21:58.807Z,62.70
2023-04-25T19:24:27.261Z,59.36
2023-04-25T19:26:55.311Z,55.81
2023-04-25T19:29:23.251Z,56.94
2023-04-25T19:31:51.573Z,59.06
2023-04-25T19:34:19.722Z,60.44
2023-04-25T19:36:48.979Z,62.27
2023-04-25T19:39:16.970Z,63.93
2023-04-25T19:41:44.914Z,59.65
2023-04-25T19:44:12.847Z,56.43
2023-04-25T19:46:42.194Z,57.68
2023-04-25T19:49:10.283Z,59.32
2023-04-25T19:51:38.238Z,60.78
2023-04-25T19:54:06.230Z,62.21
2023-04-25T19:56:34.231Z,63.61
2023-04-25T19:59:02.409Z,60.28
2023-04-25T20:01:30.756Z,55.59
2023-04-25T20:03:59.108Z,56.29
2023-04-25T20:06:27.510Z,59.15
2023-04-25T20:13:42.507Z,66.80
2023-04-25T20:16:10.873Z,61.29
2023-04-25T20:18:39.736Z,57.76
2023-04-25T20:21:08.696Z,54.78
2023-04-25T20:23:36.637Z,55.41
2023-04-25T20:26:05.031Z,57.20
2023-04-25T20:28:33.330Z,60.41
2023-04-25T20:31:02.502Z,61.86
2023-04-25T20:33:30.614Z,63.84
2023-04-25T20:35:58.743Z,63.37
2023-04-25T20:38:26.961Z,58.03
2023-04-25T20:40:56.518Z,57.77
2023-04-25T20:43:25.924Z,60.63
2023-04-25T20:45:54.960Z,62.79
2023-04-25T20:48:23.155Z,63.24
2023-04-25T20:50:51.581Z,57.92
2023-04-25T20:53:19.571Z,57.49
2023-04-25T20:55:48.221Z,60.33
2023-04-25T20:58:16.312Z,62.22
2023-04-25T21:00:47.701Z,64.13
2023-04-25T21:03:16.218Z,59.67
2023-04-25T21:05:44.461Z,58.01
2023-04-25T21:08:12.860Z,59.73
2023-04-25T21:10:41.007Z,61.82
2023-04-25T21:13:08.965Z,63.44
2023-04-25T21:15:37.070Z,60.20
2023-04-25T21:18:05.058Z,57.66
2023-04-25T21:20:33.265Z,61.39
2023-04-25T21:23:01.689Z,63.14
2023-04-25T21:25:31.941Z,59.72
2023-04-25T21:28:02.402Z,57.35
2023-04-25T21:30:30.941Z,59.85
2023-04-25T21:32:59.090Z,62.82
2023-04-25T21:35:27.064Z,59.71
2023-04-25T21:37:55.360Z,56.35
2023-04-25T21:40:23.458Z,57.50
2023-04-25T21:42:53.515Z,60.69
2023-04-25T21:45:21.782Z,62.05
2023-04-25T21:47:50.878Z,61.80
2023-04-25T21:50:19.757Z,59.35
2023-04-25T21:52:48.495Z,57.68
2023-04-25T21:55:17.478Z,60.43
2023-04-25T21:57:46.464Z,62.26
2023-04-25T22:00:21.704Z,62.54
2023-04-25T22:02:49.741Z,58.67
2023-04-25T22:05:21.378Z,60.23
2023-04-25T22:07:50.742Z,62.59
2023-04-25T22:10:19.794Z,62.76
2023-04-25T22:12:51.099Z,58.51
2023-04-25T22:15:21.615Z,59.47
2023-04-25T22:17:56.659Z,60.90
2023-04-25T22:20:26.510Z,63.67
2023-04-25T22:22:56.573Z,60.75
2023-04-25T22:25:25.345Z,58.40
2023-04-25T22:27:53.289Z,58.86
2023-04-25T22:30:21.793Z,61.83
2023-04-25T22:32:49.972Z,62.67
2023-04-25T22:35:18.020Z,58.98
2023-04-25T22:37:46.138Z,58.75
2023-04-25T22:40:14.111Z,61.45
2023-04-25T22:42:43.726Z,63.49
2023-04-25T22:45:12.415Z,60.87
2023-04-25T22:47:40.810Z,57.84
2023-04-25T22:50:13.752Z,61.48
2023-04-25T22:52:42.972Z,63.20
2023-04-25T22:55:12.611Z,59.40
2023-04-25T22:57:41.653Z,59.17
2023-04-25T23:00:19.302Z,61.12
2023-04-25T23:02:48.873Z,63.67
2023-04-25T23:05:16.968Z,60.97
2023-04-25T23:07:45.210Z,58.51
2023-04-25T23:10:14.399Z,60.11
2023-04-25T23:12:42.947Z,62.19
2023-04-25T23:15:13.230Z,63.13
2023-04-25T23:17:42.282Z,59.49
2023-04-25T23:20:11.749Z,58.07
2023-04-25T23:22:39.789Z,59.36
2023-04-25T23:25:08.721Z,61.39
2023-04-25T23:27:37.549Z,63.36
2023-04-25T23:30:06.474Z,61.56
2023-04-25T23:32:34.849Z,55.57
2023-04-25T23:35:04.953Z,57.10
2023-04-25T23:37:34.261Z,59.04
2023-04-25T23:40:02.808Z,61.94
2023-04-25T23:42:30.828Z,62.96
2023-04-25T23:44:58.721Z,57.06
2023-04-25T23:47:26.595Z,57.25
2023-04-25T23:49:54.596Z,59.67
2023-04-25T23:52:23.685Z,61.47
2023-04-25T23:54:51.702Z,62.30
2023-04-25T23:57:19.631Z,61.89
2023-04-25T23:59:47.535Z,56.84
